Lost Creek, KY (41348)

5:05 AM EDT on July 25, 2014 (GMT -0400)
KKYJACKS3 Elev 994 ft | 37.41 °N, 83.42 °W | Change Station
Active Advisory: Dense Fog Advisory, Special Statement Active Notice: Local Storm Report

Current weather conditions updated 5 seconds ago

Fog
Fog
61.6 °F
Feels Like 61.6 °F
N
0.0
Wind Variable Wind from North
Gusts 0.0 mph

Today is forecast to be Much Warmer than yesterday.

Today
High -- | Low -- °F
--% Chance of Precip.
Yesterday
High -- | Low -- °F
Precip. -- in
6:31 AM 8:47 PM
Waning Crescent, 2% visible
Pressure 30.04 in
Visibility 0.2 miles
Clouds
Dew Point 60 °F
Humidity 96%
Rainfall 0.00 in
Snow Depth Not available.
UV Not available.
Pollen .60 out of 12
Air Quality Not available.
Flu Activity Not available.
METAR KJKL 250853Z AUTO 00000KT M1/4SM FG VV001 16/14 A3007 RMK AO2 SLP172 T01560144 53002

More Conditions Fewer Conditions

Pressure 30.04 in
Visibility 0.2 miles
Clouds
Dew Point 60 °F
Humidity 96%
Rainfall 0.00 in
Snow Depth Not available.
UV Not available.
Pollen .60 out of 12
Air Quality Not available.
Flu Activity Not available.
METAR KJKL 250853Z AUTO 00000KT M1/4SM FG VV001 16/14 A3007 RMK AO2 SLP172 T01560144 53002

More Conditions Fewer Conditions

10-Day Weather Forecast

Almanac

Astronomy

Jul. 25, 2014 Rise Set
Actual Time 6:31 AM EDT 8:47 PM EDT
Civil Twilight 6:02 AM EDT 9:16 PM EDT
Nautical Twilight 5:26 AM EDT 9:52 PM EDT
Astronomical Twilight 4:46 AM EDT 10:32 PM EDT
Moon 5:29 AM EDT 7:44 PM EDT
Length of Visible Light 15h 14m
Length of Day
14h 15m
Tomorrow will be 1m 36s shorter.
Waning Crescent, 2% of the Moon is Illuminated
Today
Waning Crescent
Jul 26
New
Aug 3
First Quarter
Aug 10
Full
Aug 17
Last Quarter

Today's Extremes

State Highs State Lows

Community

WunderPhotos

Upload Photos

1,737,276 photos uploaded!

Nearby

Snow Depth

Station Depth Elevation
No new snow has been reported.

Earthquake Activity

City Distance Mag. Time & Date
No recent earthquake activity has been reported nearby.
Minimum magnitude displayed is 2.5.

Coastal Water Temperatures

Place Temperature
No Stations Reporting

Nearby Weather Stations

Station Location Temp. Dew Point Humidity Wind Precip. Elev Updated Type
Talbert, KY 61.6 °F 60 °F 96% North  at  0.0 mph 0.00 in / hr 994 ft 5:04 AM EDT Normal

Show More Stations Show Fewer Stations